Time;durP1;ratioP1;P1;durP2;ratioP2;P2;SDS_P1;SDS_P2;PMS_P1;PMS_P2;Temp;Humidity;BMP_temperature;BMP_pressure;BME280_temperature;BME280_humidity;BME280_pressure;Samples;Min_cycle;Max_cycle;Signal;HPM_P1;HPM_P2
2022/05/27 00:02:13;;;;;;;;;;;487.30;2380.80;;;;;;5095862;28;20002;-77
2022/05/27 00:04:39;;;;;;;;;;;487.20;2380.80;;;;;;5095929;28;19911;-79
2022/05/27 00:07:05;;;;;;;;;;;487.30;2380.80;;;;;;5095585;28;19992;-79
2022/05/27 00:09:31;;;;;;;;;;;487.10;2380.80;;;;;;5095809;28;20422;-79
2022/05/27 00:11:56;;;;;;;;;;;487.10;2380.80;;;;;;5095742;28;20003;-80
2022/05/27 00:14:22;;;;;;;;;;;487.00;2380.80;;;;;;5095225;28;19990;-79
2022/05/27 00:16:47;;;;;;;;;;;487.00;2380.80;;;;;;5095525;28;20374;-79
2022/05/27 00:19:13;;;;;;;;;;;487.00;2380.80;;;;;;5095573;28;19911;-80
2022/05/27 00:21:39;;;;;;;;;;;486.80;2380.80;;;;;;5095286;28;20373;-80
2022/05/27 00:24:04;;;;;;;;;;;486.90;2380.80;;;;;;5095430;28;19904;-80
2022/05/27 00:26:31;;;;;;;;;;;486.80;2380.80;;;;;;5095070;28;20341;-81
2022/05/27 00:28:57;;;;;;;;;;;486.70;2380.80;;;;;;5095333;28;20349;-80
2022/05/27 00:31:23;;;;;;;;;;;486.70;2380.80;;;;;;5095182;28;19908;-79
2022/05/27 00:33:48;;;;;;;;;;;486.80;2380.80;;;;;;5094791;28;19957;-78
2022/05/27 00:36:14;;;;;;;;;;;486.90;2380.80;;;;;;5095077;28;19973;-80
2022/05/27 00:38:41;;;;;;;;;;;486.90;2380.80;;;;;;5094894;28;19927;-80
2022/05/27 00:41:07;;;;;;;;;;;486.70;2380.80;;;;;;5094851;28;19911;-80
2022/05/27 00:43:32;;;;;;;;;;;486.60;2380.80;;;;;;5095273;28;20269;-80
2022/05/27 00:46:04;;;;;;;;;;;486.70;2380.80;;;;;;5094908;28;19904;-79
2022/05/27 00:48:31;;;;;;;;;;;486.70;2380.80;;;;;;5094698;28;20402;-80
2022/05/27 00:50:57;;;;;;;;;;;486.60;2380.80;;;;;;5094988;28;19910;-79
2022/05/27 00:53:34;;;;;;;;;;;486.60;2380.80;;;;;;5095489;28;20378;-80
2022/05/27 00:56:01;;;;;;;;;;;486.60;2380.80;;;;;;5094487;28;19957;-79
2022/05/27 00:58:32;;;;;;;;;;;486.60;2380.80;;;;;;5094738;28;19903;-80
2022/05/27 01:00:59;;;;;;;;;;;486.70;2380.80;;;;;;5095919;28;20238;-80
2022/05/27 01:03:25;;;;;;;;;;;486.70;2380.80;;;;;;5095504;28;19990;-80
2022/05/27 01:05:51;;;;;;;;;;;486.70;2380.80;;;;;;5094591;28;19926;-80
2022/05/27 01:08:19;;;;;;;;;;;486.70;2380.80;;;;;;5094464;28;20349;-80
2022/05/27 01:10:50;;;;;;;;;;;486.70;2380.80;;;;;;5094276;28;19973;-80
2022/05/27 01:13:24;;;;;;;;;;;486.60;2380.80;;;;;;5095917;28;19908;-80
2022/05/27 01:15:52;;;;;;;;;;;461.70;2380.80;;;;;;5094212;28;19908;-80
2022/05/27 01:20:18;;;;;;;;;;;461.70;2380.80;;;;;;5095301;28;19904;-79
2022/05/27 01:21:19;;;;;;;;;;;461.60;2380.80;;;;;;5094997;28;19955;-80
2022/05/27 01:23:45;;;;;;;;;;;;;;;;;;5093871;28;19904;-80
2022/05/27 01:26:26;;;;;;;;;;;461.60;2380.80;;;;;;5094107;28;19911;-80
2022/05/27 01:29:15;;;;;;;;;;;461.50;2380.80;;;;;;5093982;28;19908;-80
2022/05/27 01:31:49;;;;;;;;;;;461.50;2380.80;;;;;;5074470;28;19904;-80
2022/05/27 01:34:21;;;;;;;;;;;461.20;2380.80;;;;;;5093986;28;19908;-80
2022/05/27 01:36:49;;;;;;;;;;;461.30;2380.80;;;;;;5095049;28;19911;-80
2022/05/27 01:39:21;;;;;;;;;;;461.20;2380.80;;;;;;5093519;28;19951;-79
2022/05/27 01:41:59;;;;;;;;;;;461.30;2380.80;;;;;;5094030;28;19949;-80
2022/05/27 01:44:33;;;;;;;;;;;461.30;2380.80;;;;;;5094765;28;19908;-79
2022/05/27 01:47:00;;;;;;;;;;;461.40;2380.80;;;;;;5093737;28;19932;-80
2022/05/27 01:49:32;;;;;;;;;;;461.30;2380.80;;;;;;5093706;28;19904;-81
2022/05/27 01:52:04;;;;;;;;;;;461.30;2380.80;;;;;;5093439;28;19904;-80
2022/05/27 01:54:35;;;;;;;;;;;461.30;2380.80;;;;;;5093794;28;19946;-80
2022/05/27 01:57:06;;;;;;;;;;;461.20;2380.80;;;;;;5093606;28;19995;-80
2022/05/27 01:59:38;;;;;;;;;;;461.20;2380.80;;;;;;5093268;28;19904;-80
2022/05/27 02:02:08;;;;;;;;;;;461.20;2380.80;;;;;;5095048;28;19955;-81
2022/05/27 02:04:39;;;;;;;;;;;461.30;2380.80;;;;;;5093495;28;19907;-79
2022/05/27 02:07:07;;;;;;;;;;;461.20;2380.80;;;;;;5092850;28;19904;-79
2022/05/27 02:09:40;;;;;;;;;;;461.20;2380.80;;;;;;5093456;28;20310;-79
2022/05/27 02:12:09;;;;;;;;;;;461.00;2380.80;;;;;;5093171;28;19977;-79
2022/05/27 02:14:44;;;;;;;;;;;460.90;2380.80;;;;;;5093304;28;19931;-79
2022/05/27 02:17:11;;;;;;;;;;;461.00;2380.80;;;;;;5093226;28;19908;-82
2022/05/27 02:19:48;;;;;;;;;;;461.10;2380.80;;;;;;5092905;28;19935;-79
2022/05/27 02:22:37;;;;;;;;;;;460.80;2380.80;;;;;;5094213;28;19908;-80
2022/05/27 02:25:12;;;;;;;;;;;436.10;2355.20;;;;;;5087335;28;19911;-81
2022/05/27 02:27:41;;;;;;;;;;;460.80;2380.80;;;;;;5092983;28;19904;-80
2022/05/27 02:30:07;;;;;;;;;;;;;;;;;;5093251;28;19911;-80
2022/05/27 02:32:38;;;;;;;;;;;435.90;2355.20;;;;;;5092975;28;20006;-80
2022/05/27 02:35:08;;;;;;;;;;;435.80;2355.20;;;;;;5093121;28;19919;-80
2022/05/27 02:37:36;;;;;;;;;;;435.60;2355.20;;;;;;5093186;28;20384;-79
2022/05/27 02:40:05;;;;;;;;;;;435.70;2355.20;;;;;;5092871;28;20444;-80
2022/05/27 02:42:30;;;;;;;;;;;435.80;2355.20;;;;;;5093003;28;19904;-80
2022/05/27 02:45:04;;;;;;;;;;;435.90;2355.20;;;;;;5092718;28;19949;-78
2022/05/27 02:48:02;;;;;;;;;;;436.00;2355.20;;;;;;5092528;28;19904;-77
2022/05/27 02:50:30;;;;;;;;;;;435.80;2355.20;;;;;;5070014;28;19904;-78
2022/05/27 02:53:14;;;;;;;;;;;435.80;2355.20;;;;;;5092645;28;19911;-78
2022/05/27 02:55:43;;;;;;;;;;;435.90;2355.20;;;;;;5092446;28;19908;-78
2022/05/27 02:58:09;;;;;;;;;;;435.80;2355.20;;;;;;5092670;28;19904;-79
2022/05/27 03:00:36;;;;;;;;;;;435.60;2355.20;;;;;;5092633;28;19955;-77
2022/05/27 03:03:01;;;;;;;;;;;435.60;2355.20;;;;;;5092729;28;20277;-78
2022/05/27 03:05:30;;;;;;;;;;;435.80;2355.20;;;;;;5092697;28;19904;-78
2022/05/27 03:08:02;;;;;;;;;;;435.80;2355.20;;;;;;5092380;28;20242;-77
2022/05/27 03:10:33;;;;;;;;;;;435.80;2355.20;;;;;;5092625;28;20595;-79
2022/05/27 03:12:59;;;;;;;;;;;435.60;2355.20;;;;;;5092858;28;20026;-78
2022/05/27 03:15:28;;;;;;;;;;;435.60;2355.20;;;;;;5092334;28;20006;-79
2022/05/27 03:18:02;;;;;;;;;;;435.50;2355.20;;;;;;5094489;28;20273;-79
2022/05/27 03:20:34;;;;;;;;;;;435.50;2355.20;;;;;;5096801;28;20041;-77
2022/05/27 03:23:03;;;;;;;;;;;435.50;2355.20;;;;;;5096189;28;20375;-78
2022/05/27 03:25:39;;;;;;;;;;;435.30;2355.20;;;;;;5096300;28;19904;-79
2022/05/27 03:28:18;;;;;;;;;;;435.20;2355.20;;;;;;5096115;28;19904;-78
2022/05/27 03:30:53;;;;;;;;;;;410.40;2355.20;;;;;;5096119;28;19947;-78
2022/05/27 03:33:22;;;;;;;;;;;410.40;2355.20;;;;;;5096126;28;19908;-78
2022/05/27 03:35:53;;;;;;;;;;;410.50;2355.20;;;;;;5096062;28;20380;-77
2022/05/27 03:38:25;;;;;;;;;;;435.20;2355.20;;;;;;5096141;28;19916;-79
2022/05/27 03:40:58;;;;;;;;;;;410.50;2355.20;;;;;;5097493;28;19911;-78
2022/05/27 03:43:24;;;;;;;;;;;410.40;2355.20;;;;;;5097208;28;19915;-81
2022/05/27 03:45:51;;;;;;;;;;;435.20;2355.20;;;;;;5096038;28;19908;-79
2022/05/27 03:48:18;;;;;;;;;;;435.40;2355.20;;;;;;5095762;28;19904;-80
2022/05/27 03:50:45;;;;;;;;;;;435.40;2355.20;;;;;;5095767;28;19953;-78
2022/05/27 03:53:11;;;;;;;;;;;435.50;2355.20;;;;;;5096050;28;20007;-79
2022/05/27 03:55:41;;;;;;;;;;;435.60;2355.20;;;;;;5095820;28;19944;-80
2022/05/27 03:58:07;;;;;;;;;;;435.70;2355.20;;;;;;5096035;28;20335;-78
2022/05/27 04:00:32;;;;;;;;;;;435.80;2355.20;;;;;;5096830;28;19935;-78
2022/05/27 04:02:58;;;;;;;;;;;435.90;2355.20;;;;;;5095793;28;19904;-79
2022/05/27 04:05:24;;;;;;;;;;;435.80;2355.20;;;;;;5095508;28;20384;-79
2022/05/27 04:07:49;;;;;;;;;;;436.10;2355.20;;;;;;5095757;28;19904;-78
2022/05/27 04:10:15;;;;;;;;;;;436.10;2355.20;;;;;;5097195;28;19904;-78
2022/05/27 04:12:41;;;;;;;;;;;435.90;2355.20;;;;;;5096723;28;19904;-79
2022/05/27 04:15:06;;;;;;;;;;;435.90;2355.20;;;;;;5095584;28;20360;-78
2022/05/27 04:17:32;;;;;;;;;;;435.90;2355.20;;;;;;5094904;28;19904;-78
2022/05/27 04:19:57;;;;;;;;;;;435.90;2355.20;;;;;;5095491;28;19912;-79
2022/05/27 04:22:23;;;;;;;;;;;435.90;2355.20;;;;;;5096584;28;20301;-80
2022/05/27 04:24:49;;;;;;;;;;;435.70;2355.20;;;;;;5095422;28;19904;-79
2022/05/27 04:27:16;;;;;;;;;;;435.80;2355.20;;;;;;5095311;28;20446;-78
2022/05/27 04:29:43;;;;;;;;;;;435.90;2355.20;;;;;;5096317;28;19904;-79
2022/05/27 04:32:09;;;;;;;;;;;435.90;2355.20;;;;;;5096168;28;20309;-79
2022/05/27 04:34:34;;;;;;;;;;;435.90;2355.20;;;;;;5095257;28;19908;-79
2022/05/27 04:37:00;;;;;;;;;;;436.10;2355.20;;;;;;5095156;28;19908;-79
2022/05/27 04:39:26;;;;;;;;;;;436.00;2355.20;;;;;;5094371;28;19916;-78
2022/05/27 04:41:52;;;;;;;;;;;460.80;2380.80;;;;;;5094950;28;19905;-79
2022/05/27 04:44:18;;;;;;;;;;;436.10;2355.20;;;;;;5094861;28;19911;-78
2022/05/27 04:46:45;;;;;;;;;;;460.80;2380.80;;;;;;5094911;28;19915;-78
2022/05/27 04:49:50;;;;;;;;;;;460.80;2380.80;;;;;;5097142;28;19939;-78
2022/05/27 04:51:57;;;;;;;;;;;460.80;2380.80;;;;;;5100089;28;19904;-79
2022/05/27 04:54:23;;;;;;;;;;;460.80;2380.80;;;;;;5097571;28;19908;-77
2022/05/27 04:56:48;;;;;;;;;;;460.90;2380.80;;;;;;5095027;28;19915;-79
2022/05/27 04:59:14;;;;;;;;;;;460.90;2380.80;;;;;;5094445;28;19935;-78
2022/05/27 05:01:39;;;;;;;;;;;460.90;2380.80;;;;;;5096041;28;19908;-78
2022/05/27 05:04:05;;;;;;;;;;;460.90;2380.80;;;;;;5094540;28;19911;-78
2022/05/27 05:06:31;;;;;;;;;;;460.90;2380.80;;;;;;5095854;28;19904;-78
2022/05/27 05:08:57;;;;;;;;;;;461.00;2380.80;;;;;;5095591;28;19957;-79
2022/05/27 05:11:22;;;;;;;;;;;461.00;2380.80;;;;;;5094318;28;19946;-78
2022/05/27 05:13:48;;;;;;;;;;;461.10;2380.80;;;;;;5094364;28;19908;-78
2022/05/27 05:16:13;;;;;;;;;;;461.20;2380.80;;;;;;5094584;28;19912;-79
2022/05/27 05:18:39;;;;;;;;;;;461.30;2380.80;;;;;;5094399;28;19939;-78
2022/05/27 05:21:04;;;;;;;;;;;461.30;2380.80;;;;;;5094575;28;20401;-80
2022/05/27 05:23:30;;;;;;;;;;;461.30;2380.80;;;;;;5105409;28;19904;-77
2022/05/27 05:25:56;;;;;;;;;;;461.40;2380.80;;;;;;5112279;28;19908;-78
2022/05/27 05:28:21;;;;;;;;;;;461.50;2380.80;;;;;;5113100;28;19926;-78
2022/05/27 05:30:47;;;;;;;;;;;461.70;2380.80;;;;;;5113613;28;19927;-78
2022/05/27 05:33:12;;;;;;;;;;;461.70;2380.80;;;;;;5113772;28;19908;-79
2022/05/27 05:35:38;;;;;;;;;;;486.40;2380.80;;;;;;5114474;28;19930;-77
2022/05/27 05:38:04;;;;;;;;;;;486.50;2380.80;;;;;;5112290;28;19920;-78
2022/05/27 05:40:30;;;;;;;;;;;486.60;2380.80;;;;;;5112955;28;19904;-77
2022/05/27 05:42:56;;;;;;;;;;;486.60;2380.80;;;;;;5113333;28;19904;-79
2022/05/27 05:45:21;;;;;;;;;;;486.70;2380.80;;;;;;5114196;28;20344;-78
2022/05/27 05:47:48;;;;;;;;;;;486.90;2380.80;;;;;;5114121;28;19920;-78
2022/05/27 05:50:15;;;;;;;;;;;487.00;2380.80;;;;;;5113812;28;19908;-77
2022/05/27 05:52:40;;;;;;;;;;;487.00;2380.80;;;;;;5112956;28;19915;-78
2022/05/27 05:55:07;;;;;;;;;;;487.20;2380.80;;;;;;5113816;28;19911;-78
2022/05/27 05:57:35;;;;;;;;;;;487.30;2380.80;;;;;;5114544;28;20387;-78
2022/05/27 06:00:01;;;;;;;;;;;512.20;2380.80;;;;;;5119192;28;19899;-78
2022/05/27 06:02:27;;;;;;;;;;;512.40;2380.80;;;;;;5118791;28;19908;-77
2022/05/27 06:04:52;;;;;;;;;;;512.70;2380.80;;;;;;5118466;28;19908;-79
2022/05/27 06:07:18;;;;;;;;;;;512.90;2380.80;;;;;;5119289;28;19908;-79
2022/05/27 06:09:43;;;;;;;;;;;512.90;2380.80;;;;;;5117951;28;19904;-78
2022/05/27 06:12:09;;;;;;;;;;;537.70;2406.40;;;;;;5118707;28;19896;-79
2022/05/27 06:14:35;;;;;;;;;;;512.90;2380.80;;;;;;5116751;28;19912;-78
2022/05/27 06:17:01;;;;;;;;;;;512.90;2380.80;;;;;;5118001;28;19899;-78
2022/05/27 06:19:26;;;;;;;;;;;537.70;2406.40;;;;;;5118920;28;19899;-78
2022/05/27 06:21:52;;;;;;;;;;;537.90;2406.40;;;;;;5118130;28;19914;-78
2022/05/27 06:24:18;;;;;;;;;;;538.00;2406.40;;;;;;5118292;28;19912;-79
2022/05/27 06:26:43;;;;;;;;;;;537.90;2406.40;;;;;;5097009;28;19915;-79
2022/05/27 06:34:37;;;;;;;;;;;538.20;2406.40;;;;;;5094309;28;19919;-78
2022/05/27 06:37:05;;;;;;;;;;;538.30;2406.40;;;;;;5093206;28;19904;-79
2022/05/27 06:39:32;;;;;;;;;;;538.50;2406.40;;;;;;5092650;28;19938;-79
2022/05/27 06:41:58;;;;;;;;;;;563.30;2432.00;;;;;;5094283;28;19995;-78
2022/05/27 06:44:23;;;;;;;;;;;563.60;2432.00;;;;;;5092888;28;19904;-78
2022/05/27 06:46:51;;;;;;;;;;;563.70;2432.00;;;;;;5093226;28;19939;-79
2022/05/27 06:49:17;;;;;;;;;;;563.90;2432.00;;;;;;5093053;28;19927;-77
2022/05/27 06:51:43;;;;;;;;;;;563.90;2432.00;;;;;;5093386;28;19915;-78
2022/05/27 06:54:12;;;;;;;;;;;563.80;2432.00;;;;;;5097162;28;20334;-77
2022/05/27 06:56:39;;;;;;;;;;;563.80;2432.00;;;;;;5098407;28;19904;-77
2022/05/27 06:59:06;;;;;;;;;;;563.90;2432.00;;;;;;5097027;28;19908;-78
2022/05/27 07:01:32;;;;;;;;;;;564.00;2432.00;;;;;;5097000;28;20268;-77
2022/05/27 07:03:57;;;;;;;;;;;564.10;2432.00;;;;;;5097020;28;19903;-77
2022/05/27 07:06:25;;;;;;;;;;;564.00;2432.00;;;;;;5096553;28;20246;-77
2022/05/27 07:08:51;;;;;;;;;;;564.10;2432.00;;;;;;5096968;28;19950;-80
2022/05/27 07:11:16;;;;;;;;;;;589.00;2432.00;;;;;;5098164;28;19904;-78
2022/05/27 07:13:42;;;;;;;;;;;589.10;2432.00;;;;;;5096840;28;19912;-79
2022/05/27 07:16:07;;;;;;;;;;;589.30;2432.00;;;;;;5097727;28;19904;-79
2022/05/27 07:18:33;;;;;;;;;;;589.20;2432.00;;;;;;5096697;28;19904;-78
2022/05/27 07:20:59;;;;;;;;;;;;;;;;;;5096250;28;20387;-78
2022/05/27 07:23:25;;;;;;;;;;;;;;;;;;5096474;28;19904;-77
2022/05/27 07:25:51;;;;;;;;;;;;;;;;;;5097732;28;19998;-78
2022/05/27 07:28:17;;;;;;;;;;;;;;;;;;5096224;28;20367;-78
2022/05/27 07:30:42;;;;;;;;;;;589.60;2406.40;;;;;;5096383;28;19904;-77
2022/05/27 07:33:09;;;;;;;;;;;589.50;2432.00;;;;;;5096222;28;19959;-79
2022/05/27 07:35:34;;;;;;;;;;;589.70;2432.00;;;;;;5095958;28;19908;-78
2022/05/27 07:38:00;;;;;;;;;;;614.80;2304.00;;;;;;5095982;28;20003;-79
2022/05/27 07:40:25;;;;;;;;;;;614.80;2304.00;;;;;;5096014;28;19926;-79
2022/05/27 07:42:51;;;;;;;;;;;615.10;2278.40;;;;;;5096141;28;19904;-77
2022/05/27 07:45:17;;;;;;;;;;;615.10;2227.20;;;;;;5096790;28;19904;-78
2022/05/27 07:47:43;;;;;;;;;;;640.00;2227.20;;;;;;5095674;28;20271;-76
2022/05/27 07:50:11;;;;;;;;;;;640.20;2176.00;;;;;;5096024;28;19954;-78
2022/05/27 07:52:37;;;;;;;;;;;640.30;2150.40;;;;;;5095837;28;19957;-78
2022/05/27 07:55:03;;;;;;;;;;;640.20;2124.80;;;;;;5096753;28;19912;-77
2022/05/27 07:57:29;;;;;;;;;;;640.10;2150.40;;;;;;5096023;28;19911;-77
2022/05/27 07:59:54;;;;;;;;;;;640.10;2176.00;;;;;;5095814;28;19908;-78
2022/05/27 08:02:23;;;;;;;;;;;615.10;2201.60;;;;;;5096597;28;19908;-77
2022/05/27 08:04:49;;;;;;;;;;;640.00;2201.60;;;;;;5094669;28;19910;-77
2022/05/27 08:07:15;;;;;;;;;;;640.30;2176.00;;;;;;5095612;28;19955;-78
2022/05/27 08:09:41;;;;;;;;;;;640.70;2124.80;;;;;;5095699;28;20358;-78
2022/05/27 08:12:07;;;;;;;;;;;640.60;2099.20;;;;;;5095188;28;20002;-77
2022/05/27 08:14:32;;;;;;;;;;;640.80;2124.80;;;;;;5095299;28;19912;-77
2022/05/27 08:16:59;;;;;;;;;;;665.90;2150.40;;;;;;5095438;28;19904;-78
2022/05/27 08:19:24;;;;;;;;;;;666.10;2150.40;;;;;;5095184;28;19974;-78
2022/05/27 08:21:50;;;;;;;;;;;666.00;2124.80;;;;;;5095325;28;20376;-77
2022/05/27 08:24:16;;;;;;;;;;;666.10;2124.80;;;;;;5095604;28;19911;-77
2022/05/27 08:26:42;;;;;;;;;;;666.20;2099.20;;;;;;5095012;28;19908;-78
2022/05/27 08:29:08;;;;;;;;;;;691.50;2099.20;;;;;;5095169;28;20410;-78
2022/05/27 08:31:34;;;;;;;;;;;691.40;2048.00;;;;;;5095165;28;19912;-78
2022/05/27 08:39:29;;;;;;;;;;;691.90;2022.40;;;;;;5105390;28;19950;-78
2022/05/27 08:41:55;;;;;;;;;;;;;;;;;;5115228;28;19951;-77
2022/05/27 08:44:41;;;;;;;;;;;691.90;1971.20;;;;;;5115268;28;19904;-77
2022/05/27 08:47:24;;;;;;;;;;;691.90;1945.60;;;;;;5114020;28;19959;-78
2022/05/27 08:49:58;;;;;;;;;;;691.90;1945.60;;;;;;5116803;28;20338;-78
2022/05/27 08:52:25;;;;;;;;;;;692.00;1945.60;;;;;;5115070;28;19950;-76
2022/05/27 08:54:54;;;;;;;;;;;717.00;1894.40;;;;;;5115744;28;20242;-76
2022/05/27 09:00:10;;;;;;;;;;;717.40;1792.00;;;;;;5116291;28;20417;-77
2022/05/27 09:02:38;;;;;;;;;;;717.60;1792.00;;;;;;5114616;28;19907;-77
2022/05/27 09:05:06;;;;;;;;;;;717.70;1817.60;;;;;;5116047;28;19904;-77
2022/05/27 09:07:35;;;;;;;;;;;717.70;1792.00;;;;;;5114799;28;19984;-75
2022/05/27 09:10:03;;;;;;;;;;;742.50;1817.60;;;;;;5115381;28;20318;-77
2022/05/27 09:12:38;;;;;;;;;;;742.60;1792.00;;;;;;5114690;28;19903;-77
2022/05/27 09:15:04;;;;;;;;;;;742.80;1766.40;;;;;;5114059;28;19922;-76
2022/05/27 09:17:33;;;;;;;;;;;742.90;1766.40;;;;;;5113091;28;20284;-76
2022/05/27 09:20:02;;;;;;;;;;;742.80;1740.80;;;;;;5114470;28;19907;-77
2022/05/27 09:22:27;;;;;;;;;;;743.00;1740.80;;;;;;5114211;28;19908;-79
2022/05/27 09:24:56;;;;;;;;;;;743.20;1740.80;;;;;;5114306;28;19915;-78
2022/05/27 09:27:41;;;;;;;;;;;743.10;1715.20;;;;;;5114409;28;20002;-78
2022/05/27 09:30:11;;;;;;;;;;;743.10;1740.80;;;;;;5115043;28;20262;-77
2022/05/27 09:32:40;;;;;;;;;;;742.80;1766.40;;;;;;5115683;28;20241;-80
2022/05/27 09:35:26;;;;;;;;;;;743.00;1766.40;;;;;;5114297;28;19923;-79
2022/05/27 09:37:54;;;;;;;;;;;743.10;1740.80;;;;;;5113088;28;19952;-80
2022/05/27 09:40:25;;;;;;;;;;;768.00;1715.20;;;;;;5114606;28;19904;-78
2022/05/27 09:42:57;;;;;;;;;;;768.00;1689.60;;;;;;5114118;28;19908;-78
2022/05/27 09:45:23;;;;;;;;;;;768.30;1715.20;;;;;;5114119;28;19970;-77
2022/05/27 09:47:49;;;;;;;;;;;768.20;1689.60;;;;;;5114225;28;20267;-76
2022/05/27 09:50:33;;;;;;;;;;;768.40;1715.20;;;;;;5113647;28;19907;-79
2022/05/27 09:53:00;;;;;;;;;;;768.50;1715.20;;;;;;5113619;28;19929;-78
2022/05/27 09:55:27;;;;;;;;;;;768.90;1715.20;;;;;;5113752;28;20006;-78
2022/05/27 09:57:58;;;;;;;;;;;793.70;1689.60;;;;;;5114725;28;19969;-77
2022/05/27 10:00:41;;;;;;;;;;;793.60;1664.00;;;;;;5114891;28;20108;-77
2022/05/27 10:03:22;;;;;;;;;;;793.90;1689.60;;;;;;5114845;28;19911;-78
2022/05/27 10:06:00;;;;;;;;;;;794.20;1664.00;;;;;;5114755;28;20002;-78
2022/05/27 10:08:27;;;;;;;;;;;794.20;1612.80;;;;;;5113788;28;20332;-80
2022/05/27 10:11:05;;;;;;;;;;;794.40;1664.00;;;;;;5114872;28;19973;-79
2022/05/27 10:13:34;;;;;;;;;;;794.00;1664.00;;;;;;5113534;28;19921;-77
2022/05/27 10:16:05;;;;;;;;;;;794.20;1664.00;;;;;;5113740;28;19939;-76
2022/05/27 10:18:30;;;;;;;;;;;794.20;1612.80;;;;;;5114433;28;19942;-76
2022/05/27 10:21:00;;;;;;;;;;;794.50;1612.80;;;;;;5115796;28;19907;-77
2022/05/27 10:23:26;;;;;;;;;;;;;;;;;;5113411;28;19911;-77
2022/05/27 10:25:52;;;;;;;;;;;819.30;1612.80;;;;;;5113091;28;20006;-76
2022/05/27 10:28:27;;;;;;;;;;;819.30;1612.80;;;;;;5112943;28;20025;-79
2022/05/27 10:30:54;;;;;;;;;;;794.50;1612.80;;;;;;5113380;28;20399;-79
2022/05/27 10:33:24;;;;;;;;;;;794.50;1612.80;;;;;;5114322;28;19996;-76
2022/05/27 10:35:52;;;;;;;;;;;819.30;1587.20;;;;;;5113456;28;19911;-78
2022/05/27 10:38:36;;;;;;;;;;;819.60;1561.60;;;;;;5114733;28;19922;-79
2022/05/27 10:41:02;;;;;;;;;;;819.60;1587.20;;;;;;5113100;28;19911;-78
2022/05/27 10:43:54;;;;;;;;;;;819.90;1587.20;;;;;;5112903;28;19903;-77
2022/05/27 10:46:27;;;;;;;;;;;819.60;1561.60;;;;;;5107513;28;20000;-78
2022/05/27 10:49:11;;;;;;;;;;;819.90;1561.60;;;;;;5113477;28;19908;-77
2022/05/27 10:51:55;;;;;;;;;;;844.90;1587.20;;;;;;5114083;28;19907;-77
2022/05/27 10:54:21;;;;;;;;;;;;;;;;;;5112612;28;19911;-77
2022/05/27 11:03:01;;;;;;;;;;;845.40;1561.60;;;;;;5114009;28;19958;-77
2022/05/27 11:05:38;;;;;;;;;;;844.80;1536.00;;;;;;5113009;28;19904;-78
2022/05/27 11:08:04;;;;;;;;;;;845.10;1561.60;;;;;;5113808;28;19907;-77
2022/05/27 11:10:38;;;;;;;;;;;845.00;1536.00;;;;;;5113045;28;19973;-77
2022/05/27 11:16:21;;;;;;;;;;;819.80;1561.60;;;;;;5113031;28;19911;-77
2022/05/27 11:18:53;;;;;;;;;;;820.10;1587.20;;;;;;5112916;28;19957;-79
2022/05/27 11:21:25;;;;;;;;;;;845.20;1561.60;;;;;;5112496;28;19908;-77
2022/05/27 11:24:08;;;;;;;;;;;845.50;1561.60;;;;;;5112857;28;20310;-79
2022/05/27 11:26:46;;;;;;;;;;;870.50;1510.40;;;;;;5112876;28;19912;-79
2022/05/27 11:29:12;;;;;;;;;;;870.60;1510.40;;;;;;5112557;28;19907;-79
2022/05/27 11:31:40;;;;;;;;;;;870.80;1484.80;;;;;;5112715;28;20004;-78
2022/05/27 11:34:26;;;;;;;;;;;870.90;1484.80;;;;;;5113509;28;19911;-78
2022/05/27 11:36:52;;;;;;;;;;;871.30;1459.20;;;;;;5113657;28;19904;-78
2022/05/27 11:39:36;;;;;;;;;;;896.00;1484.80;;;;;;5114222;28;20310;-78
2022/05/27 11:42:07;;;;;;;;;;;896.20;1459.20;;;;;;5118135;27;19949;-76
2022/05/27 11:44:33;;;;;;;;;;;896.00;1408.00;;;;;;5116681;28;19904;-78
2022/05/27 11:47:22;;;;;;;;;;;870.90;1408.00;;;;;;5116804;28;19904;-78
2022/05/27 11:50:00;;;;;;;;;;;845.70;1433.60;;;;;;5107826;28;20437;-78
2022/05/27 11:52:36;;;;;;;;;;;870.40;1433.60;;;;;;5117970;28;19926;-77
2022/05/27 11:55:15;;;;;;;;;;;870.40;1459.20;;;;;;5116627;28;19918;-77
2022/05/27 11:57:47;;;;;;;;;;;870.80;1433.60;;;;;;5116052;28;19903;-78
2022/05/27 12:00:16;;;;;;;;;;;871.30;1433.60;;;;;;5116070;28;19910;-78
2022/05/27 12:02:54;;;;;;;;;;;896.10;1433.60;;;;;;5117126;28;19904;-77
2022/05/27 12:05:23;;;;;;;;;;;896.40;1382.40;;;;;;5114760;27;19914;-78
2022/05/27 12:07:52;;;;;;;;;;;896.20;1356.80;;;;;;5117137;28;19915;-76
2022/05/27 12:10:31;;;;;;;;;;;896.20;1356.80;;;;;;5115490;28;20010;-77
2022/05/27 12:13:01;;;;;;;;;;;896.30;1382.40;;;;;;5115950;28;19914;-77
2022/05/27 12:15:30;;;;;;;;;;;896.30;1356.80;;;;;;5115308;28;20349;-77
2022/05/27 12:17:56;;;;;;;;;;;896.50;1408.00;;;;;;5116671;28;20417;-78
2022/05/27 12:20:24;;;;;;;;;;;896.60;1356.80;;;;;;5115526;28;19904;-78
2022/05/27 12:22:51;;;;;;;;;;;896.50;1382.40;;;;;;5115468;28;19908;-78
2022/05/27 12:25:21;;;;;;;;;;;896.60;1382.40;;;;;;5115691;28;19904;-78
2022/05/27 12:27:49;;;;;;;;;;;896.70;1356.80;;;;;;5116427;28;19972;-77
2022/05/27 12:30:16;;;;;;;;;;;896.70;1382.40;;;;;;5115394;28;19908;-77
2022/05/27 12:32:42;;;;;;;;;;;896.90;1382.40;;;;;;5115042;28;19994;-78
2022/05/27 12:35:20;;;;;;;;;;;896.60;1331.20;;;;;;5115162;28;20330;-77
2022/05/27 12:37:48;;;;;;;;;;;896.10;1382.40;;;;;;5114849;28;19904;-77
2022/05/27 12:40:19;;;;;;;;;;;870.90;1382.40;;;;;;5115029;27;20008;-79
2022/05/27 12:42:45;;;;;;;;;;;870.60;1433.60;;;;;;5114753;28;19908;-78
2022/05/27 12:45:22;;;;;;;;;;;870.40;1433.60;;;;;;5114627;28;19904;-78
2022/05/27 12:47:53;;;;;;;;;;;845.70;1459.20;;;;;;5114942;28;20260;-79
2022/05/27 12:50:25;;;;;;;;;;;845.30;1459.20;;;;;;5114548;28;19956;-77
2022/05/27 12:52:52;;;;;;;;;;;845.10;1484.80;;;;;;5114488;28;19998;-78
2022/05/27 12:55:42;;;;;;;;;;;844.90;1484.80;;;;;;5114586;28;19916;-78
2022/05/27 13:00:59;;;;;;;;;;;820.10;1484.80;;;;;;5115946;28;20008;-77
2022/05/27 13:03:30;;;;;;;;;;;819.80;1459.20;;;;;;5114632;28;19916;-78
2022/05/27 13:06:05;;;;;;;;;;;819.80;1484.80;;;;;;5114455;28;19911;-76
2022/05/27 13:08:50;;;;;;;;;;;819.70;1484.80;;;;;;5095682;28;19948;-76
2022/05/27 13:11:22;;;;;;;;;;;819.70;1484.80;;;;;;5094570;28;19904;-76
2022/05/27 13:13:51;;;;;;;;;;;819.60;1510.40;;;;;;5095049;28;19923;-79
2022/05/27 13:16:23;;;;;;;;;;;819.60;1484.80;;;;;;5095282;28;19911;-78
2022/05/27 13:18:51;;;;;;;;;;;819.60;1510.40;;;;;;5095588;28;20360;-77
2022/05/27 13:21:20;;;;;;;;;;;819.60;1484.80;;;;;;5111077;28;19915;-78
2022/05/27 13:23:54;;;;;;;;;;;819.20;1510.40;;;;;;5095678;28;20001;-76
2022/05/27 13:26:40;;;;;;;;;;;794.50;1536.00;;;;;;5094004;28;19904;-78
2022/05/27 13:29:14;;;;;;;;;;;794.30;1561.60;;;;;;5109433;28;20362;-76
2022/05/27 13:31:42;;;;;;;;;;;794.10;1536.00;;;;;;5095591;28;19908;-77
2022/05/27 13:34:16;;;;;;;;;;;794.00;1561.60;;;;;;5093656;28;19999;-77
2022/05/27 13:36:52;;;;;;;;;;;793.80;1561.60;;;;;;5111108;28;20364;-77
2022/05/27 13:39:23;;;;;;;;;;;793.70;1587.20;;;;;;5094794;28;19916;-78
2022/05/27 13:41:51;;;;;;;;;;;793.60;1612.80;;;;;;5093666;28;19904;-78
2022/05/27 13:44:18;;;;;;;;;;;768.90;1587.20;;;;;;5094066;28;19904;-78
2022/05/27 13:46:44;;;;;;;;;;;768.60;1587.20;;;;;;5095602;28;19956;-78
2022/05/27 13:49:14;;;;;;;;;;;768.60;1587.20;;;;;;5093734;28;19950;-77
2022/05/27 13:51:44;;;;;;;;;;;768.60;1612.80;;;;;;5092919;28;19907;-78
2022/05/27 13:54:21;;;;;;;;;;;768.60;1638.40;;;;;;5093756;28;20335;-80
2022/05/27 13:56:49;;;;;;;;;;;768.60;1664.00;;;;;;5094742;28;20311;-78
2022/05/27 13:59:21;;;;;;;;;;;768.60;1664.00;;;;;;5093559;28;19915;-77
2022/05/27 14:01:50;;;;;;;;;;;768.60;1689.60;;;;;;5092845;28;19904;-77
2022/05/27 14:04:29;;;;;;;;;;;768.60;1715.20;;;;;;5092738;28;19904;-78
2022/05/27 14:06:55;;;;;;;;;;;768.60;1715.20;;;;;;5093492;28;19927;-76
2022/05/27 14:09:21;;;;;;;;;;;768.60;1740.80;;;;;;5092845;28;19904;-75
2022/05/27 14:11:49;;;;;;;;;;;768.60;1766.40;;;;;;5092423;28;20276;-78
2022/05/27 14:14:19;;;;;;;;;;;768.60;1766.40;;;;;;5093874;28;19920;-78
2022/05/27 14:16:45;;;;;;;;;;;768.60;1766.40;;;;;;5093071;28;20376;-77
2022/05/27 14:19:16;;;;;;;;;;;768.60;1766.40;;;;;;5094990;28;19904;-76
2022/05/27 14:24:31;;;;;;;;;;;768.60;1766.40;;;;;;5094091;28;19911;-79
2022/05/27 14:26:57;;;;;;;;;;;768.60;1792.00;;;;;;5093112;28;20369;-78